Time;durP1;ratioP1;P1;durP2;ratioP2;P2;SDS_P1;SDS_P2;PMS_P1;PMS_P2;Temp;Humidity;BMP_temperature;BMP_pressure;BME280_temperature;BME280_humidity;BME280_pressure;Samples;Min_cycle;Max_cycle;Signal;HPM_P1;HPM_P2
2022/08/19 00:01:17;;;;;;;30.80;24.50;;;;;;;18.64;91.09;101216.34;5011218;28;20132;-61
2022/08/19 00:03:42;;;;;;;27.90;22.73;;;;;;;18.59;90.83;101222.19;5011200;28;20541;-60
2022/08/19 00:06:08;;;;;;;26.70;21.98;;;;;;;18.50;90.69;101209.16;5011173;28;20084;-60
2022/08/19 00:08:34;;;;;;;28.55;23.73;;;;;;;18.43;91.53;101217.28;5011177;28;20373;-60
2022/08/19 00:10:59;;;;;;;29.13;24.80;;;;;;;18.40;91.77;101221.63;5010563;28;20026;-60
2022/08/19 00:13:24;;;;;;;30.67;25.38;;;;;;;18.35;92.41;101216.28;5011266;28;20118;-60
2022/08/19 00:15:50;;;;;;;30.13;25.48;;;;;;;18.33;93.45;101213.00;5011156;28;20033;-61
2022/08/19 00:18:15;;;;;;;31.63;26.35;;;;;;;18.34;94.04;101209.03;5011114;28;20028;-61
2022/08/19 00:20:40;;;;;;;30.60;25.05;;;;;;;18.37;94.56;101213.09;5011181;28;20477;-60
2022/08/19 00:23:06;;;;;;;30.92;26.23;;;;;;;18.30;94.68;101212.88;5011192;28;20026;-60
2022/08/19 00:25:32;;;;;;;31.77;25.95;;;;;;;18.33;94.78;101214.97;5010998;28;20042;-60
2022/08/19 00:27:58;;;;;;;33.08;26.77;;;;;;;18.21;94.67;101213.81;5011007;28;20362;-60
2022/08/19 00:30:23;;;;;;;32.80;27.63;;;;;;;18.12;95.51;101207.53;5011002;28;20525;-60
2022/08/19 00:32:49;;;;;;;31.05;26.77;;;;;;;18.16;95.82;101210.44;5011194;28;20098;-60
2022/08/19 00:35:15;;;;;;;30.83;26.42;;;;;;;18.18;95.74;101217.31;5010960;28;20022;-60
2022/08/19 00:37:43;;;;;;;35.33;28.00;;;;;;;18.18;96.14;101219.31;5012343;28;20037;-60
2022/08/19 00:40:10;;;;;;;32.67;27.77;;;;;;;18.12;95.79;101220.69;4996208;28;20091;-60
2022/08/19 00:42:35;;;;;;;34.75;30.05;;;;;;;18.07;95.99;101213.34;5014516;28;20034;-61
2022/08/19 00:45:02;;;;;;;35.00;28.55;;;;;;;18.08;96.36;101223.38;5014089;28;20112;-61
2022/08/19 00:47:27;;;;;;;34.47;28.33;;;;;;;18.03;96.99;101224.41;4995976;28;20029;-61
2022/08/19 00:49:56;;;;;;;36.95;30.70;;;;;;;17.97;97.49;101211.00;5013819;28;20042;-61
2022/08/19 00:52:29;;;;;;;37.83;31.27;;;;;;;18.07;97.56;101221.72;5013980;28;20041;-61
2022/08/19 00:54:55;;;;;;;37.33;30.95;;;;;;;18.08;97.38;101214.97;4996175;28;20038;-61
2022/08/19 00:57:27;;;;;;;37.05;30.70;;;;;;;18.07;97.44;101213.34;5014184;28;20045;-61
2022/08/19 00:59:55;;;;;;;38.75;30.20;;;;;;;17.96;97.12;101203.72;5014072;28;20034;-60
2022/08/19 01:02:20;;;;;;;37.35;29.45;;;;;;;18.00;96.49;101219.50;5014343;28;20029;-60
2022/08/19 01:04:46;;;;;;;34.92;29.33;;;;;;;17.94;96.86;101218.06;5014108;28;20029;-60
2022/08/19 01:07:12;;;;;;;36.80;29.50;;;;;;;17.89;96.54;101213.53;5014029;28;20057;-60
2022/08/19 01:09:37;;;;;;;38.47;30.48;;;;;;;17.88;97.31;101220.28;5014134;28;20037;-61
2022/08/19 01:12:03;;;;;;;36.70;30.25;;;;;;;17.84;97.59;101210.13;5014105;28;20365;-61
2022/08/19 01:14:29;;;;;;;38.10;30.55;;;;;;;17.81;98.07;101211.63;5014302;28;20073;-61
2022/08/19 01:16:56;;;;;;;37.00;29.52;;;;;;;17.79;98.07;101213.97;5013806;28;20030;-60
2022/08/19 01:19:29;;;;;;;35.97;29.67;;;;;;;17.75;98.88;101224.22;5013882;28;20049;-60
2022/08/19 01:22:26;;;;;;;36.17;28.70;;;;;;;17.79;99.03;101219.56;5013558;28;20026;-61
2022/08/19 01:24:52;;;;;;;33.58;27.45;;;;;;;17.78;98.96;101209.53;5013547;28;20091;-60
2022/08/19 01:27:18;;;;;;;34.20;28.20;;;;;;;17.82;98.69;101216.06;5013545;28;20117;-61
2022/08/19 01:29:44;;;;;;;34.58;28.85;;;;;;;17.83;98.82;101214.91;4996474;28;20115;-61
2022/08/19 01:32:13;;;;;;;34.83;28.35;;;;;;;17.76;98.88;101214.66;5013848;28;20029;-61
2022/08/19 01:34:38;;;;;;;36.45;28.17;;;;;;;17.78;98.77;101215.97;5013544;28;20366;-61
2022/08/19 01:37:11;;;;;;;37.72;30.70;;;;;;;17.68;99.86;101219.19;5013087;28;20040;-61
2022/08/19 01:39:39;;;;;;;37.55;29.83;;;;;;;17.70;99.89;101213.25;5013304;28;20370;-60
2022/08/19 01:42:07;;;;;;;37.20;30.40;;;;;;;17.71;99.66;101223.28;5013276;28;20021;-61
2022/08/19 01:44:33;;;;;;;37.60;29.80;;;;;;;17.69;99.96;101217.19;5013582;28;20486;-61
2022/08/19 01:46:58;;;;;;;35.92;29.02;;;;;;;17.71;100.00;101220.47;4995898;28;20037;-61
2022/08/19 01:49:25;;;;;;;36.50;29.33;;;;;;;17.67;100.00;101227.91;5012369;28;20077;-61
2022/08/19 01:51:51;;;;;;;37.78;31.00;;;;;;;17.61;100.00;101219.75;5013190;28;20469;-63
2022/08/19 01:54:19;;;;;;;38.20;30.05;;;;;;;17.54;100.00;101216.72;5013116;28;20064;-61
2022/08/19 01:56:46;;;;;;;37.53;30.33;;;;;;;17.56;100.00;101227.53;5013066;28;20426;-61
2022/08/19 01:59:16;;;;;;;40.80;32.13;;;;;;;17.48;100.00;101226.47;5012969;28;20069;-60
2022/08/19 02:01:41;;;;;;;38.28;29.00;;;;;;;17.49;100.00;101230.09;5012972;28;20030;-60
2022/08/19 02:04:07;;;;;;;37.70;30.10;;;;;;;17.45;100.00;101227.97;5012661;28;20028;-60
2022/08/19 02:06:32;;;;;;;39.10;31.08;;;;;;;17.43;100.00;101235.06;5012635;28;20411;-61
2022/08/19 02:08:58;;;;;;;36.65;28.90;;;;;;;17.36;99.80;101234.81;5012844;28;20021;-60
2022/08/19 02:11:28;;;;;;;35.35;28.45;;;;;;;17.26;99.63;101227.66;5012566;28;20029;-60
2022/08/19 02:13:54;;;;;;;34.13;28.23;;;;;;;17.21;99.67;101230.69;5012984;28;20125;-60
2022/08/19 02:16:20;;;;;;;33.28;27.45;;;;;;;17.18;99.69;101245.34;5012717;28;20026;-60
2022/08/19 02:18:48;;;;;;;34.42;26.80;;;;;;;17.10;99.48;101245.06;5012816;28;20334;-60
2022/08/19 02:21:15;;;;;;;33.63;27.70;;;;;;;17.07;99.30;101245.75;5012855;28;20036;-60
2022/08/19 02:23:41;;;;;;;33.55;27.58;;;;;;;17.03;99.52;101236.41;5012500;28;20041;-60
2022/08/19 02:26:06;;;;;;;33.17;26.75;;;;;;;16.97;99.72;101233.00;5012469;28;20438;-60
2022/08/19 02:28:32;;;;;;;34.88;29.85;;;;;;;16.93;99.87;101234.00;5012416;28;20064;-60
2022/08/19 02:31:00;;;;;;;34.58;27.80;;;;;;;16.90;100.00;101235.50;4994512;28;20041;-61
2022/08/19 02:33:26;;;;;;;32.28;27.13;;;;;;;16.88;99.72;101243.41;5012206;28;20049;-61
2022/08/19 02:35:51;;;;;;;32.95;27.17;;;;;;;16.82;99.75;101248.38;5011937;28;20446;-61
2022/08/19 02:38:26;;;;;;;34.28;27.40;;;;;;;16.83;99.68;101254.75;5011887;28;20041;-61
2022/08/19 02:40:54;;;;;;;33.75;27.77;;;;;;;16.75;100.00;101234.13;5012346;28;20036;-60
2022/08/19 02:43:20;;;;;;;35.40;27.52;;;;;;;16.77;99.95;101251.34;5011953;28;20021;-60
2022/08/19 02:45:47;;;;;;;35.63;28.05;;;;;;;16.77;100.00;101251.34;5012154;28;20094;-61
2022/08/19 02:48:13;;;;;;;35.78;28.95;;;;;;;16.74;100.00;101259.59;5012388;28;20026;-60
2022/08/19 02:50:40;;;;;;;37.40;29.58;;;;;;;16.72;100.00;101251.56;5011971;28;20057;-61
2022/08/19 02:53:06;;;;;;;36.97;28.58;;;;;;;16.70;100.00;101256.66;5012279;28;20022;-61
2022/08/19 02:55:32;;;;;;;37.65;29.55;;;;;;;16.68;100.00;101257.00;5011926;28;20086;-61
2022/08/19 02:57:57;;;;;;;36.13;28.83;;;;;;;16.64;100.00;101266.41;5012132;28;20104;-61
2022/08/19 03:00:23;;;;;;;36.83;29.95;;;;;;;16.63;100.00;101265.56;5012033;28;20028;-60
2022/08/19 03:02:49;;;;;;;36.25;29.00;;;;;;;16.61;100.00;101255.88;5012234;28;20095;-61
2022/08/19 03:05:14;;;;;;;35.92;29.48;;;;;;;16.54;100.00;101256.41;5012265;28;20033;-61
2022/08/19 03:07:40;;;;;;;38.38;29.05;;;;;;;16.49;100.00;101257.41;5011742;28;20125;-61
2022/08/19 03:10:06;;;;;;;36.97;29.35;;;;;;;16.47;100.00;101253.34;5011759;28;20055;-61
2022/08/19 03:12:34;;;;;;;36.80;29.63;;;;;;;16.47;100.00;101245.78;5011455;28;20484;-61
2022/08/19 03:15:00;;;;;;;38.25;29.58;;;;;;;16.45;100.00;101241.69;5011741;28;20034;-61
2022/08/19 03:17:25;;;;;;;38.65;30.95;;;;;;;16.47;100.00;101254.16;5011620;28;20025;-61
2022/08/19 03:19:51;;;;;;;41.78;33.00;;;;;;;16.51;100.00;101257.09;5012250;28;20030;-60
2022/08/19 03:22:16;;;;;;;40.97;31.20;;;;;;;16.53;100.00;101263.19;5011894;28;20032;-61
2022/08/19 03:24:41;;;;;;;41.97;31.23;;;;;;;16.53;100.00;101250.03;5012030;28;20072;-61
2022/08/19 03:27:07;;;;;;;39.28;31.15;;;;;;;16.51;100.00;101255.13;5011698;28;20064;-61
2022/08/19 03:29:32;;;;;;;39.38;31.15;;;;;;;16.49;100.00;101259.41;5012037;28;20029;-61
2022/08/19 03:32:00;;;;;;;38.92;31.92;;;;;;;16.38;100.00;101234.66;5011479;28;20032;-61
2022/08/19 03:34:28;;;;;;;37.45;29.17;;;;;;;16.29;100.00;101250.63;5011835;28;20034;-60
2022/08/19 03:36:56;;;;;;;38.80;30.20;;;;;;;16.33;100.00;101261.94;5011378;28;20060;-61
2022/08/19 03:39:23;;;;;;;35.90;27.98;;;;;;;16.31;100.00;101255.88;5011466;28;20033;-61
2022/08/19 03:41:50;;;;;;;35.80;28.38;;;;;;;16.25;100.00;101258.03;5011759;28;20037;-60
2022/08/19 03:44:20;;;;;;;35.15;27.42;;;;;;;16.19;100.00;101253.78;5011521;28;20650;-61
2022/08/19 03:46:55;;;;;;;34.58;26.40;;;;;;;16.11;100.00;101247.09;5011919;28;20030;-61
2022/08/19 03:49:23;;;;;;;35.17;27.40;;;;;;;16.08;100.00;101246.94;5011255;28;20113;-61
2022/08/19 03:51:50;;;;;;;36.70;27.85;;;;;;;16.04;100.00;101244.84;5011858;28;20026;-61
2022/08/19 03:54:20;;;;;;;34.70;26.65;;;;;;;16.01;100.00;101239.91;4994153;28;20022;-61
2022/08/19 03:56:47;;;;;;;34.33;27.33;;;;;;;16.00;100.00;101243.84;5011950;28;20072;-61
2022/08/19 03:59:17;;;;;;;34.35;28.38;;;;;;;15.89;100.00;101235.03;5011937;28;20026;-61
2022/08/19 04:01:43;;;;;;;35.22;27.15;;;;;;;15.96;100.00;101247.63;5011717;28;20026;-61
2022/08/19 04:04:08;;;;;;;35.50;28.85;;;;;;;15.90;100.00;101235.84;5011394;28;20030;-61
2022/08/19 04:06:36;;;;;;;35.85;27.88;;;;;;;15.92;100.00;101250.28;5011493;28;20061;-62
2022/08/19 04:09:04;;;;;;;37.65;28.50;;;;;;;15.90;100.00;101252.59;5011517;28;20025;-61
2022/08/19 04:11:53;;;;;;;35.30;28.40;;;;;;;15.90;100.00;101256.22;5011625;28;20018;-61
2022/08/19 04:14:20;;;;;;;35.30;28.30;;;;;;;15.84;100.00;101243.56;5015251;28;20100;-61
2022/08/19 04:16:47;;;;;;;35.05;27.58;;;;;;;15.87;100.00;101248.50;5015464;28;20370;-61
2022/08/19 04:19:14;;;;;;;35.13;28.02;;;;;;;15.84;100.00;101239.97;5014770;28;20386;-61
2022/08/19 04:21:40;;;;;;;35.03;27.10;;;;;;;15.81;100.00;101252.59;5015026;28;20026;-61
2022/08/19 04:24:06;;;;;;;34.08;28.08;;;;;;;15.75;100.00;101251.09;5014854;28;20442;-61
2022/08/19 04:26:34;;;;;;;34.10;27.83;;;;;;;15.70;100.00;101243.72;4997232;28;20030;-61
2022/08/19 04:29:01;;;;;;;34.47;27.52;;;;;;;15.69;100.00;101247.69;5014940;28;20488;-61
2022/08/19 04:31:29;;;;;;;32.70;25.92;;;;;;;15.58;100.00;101221.31;5015044;28;20030;-61
2022/08/19 04:33:57;;;;;;;30.77;25.48;;;;;;;15.65;100.00;101237.50;5015167;28;20018;-61
2022/08/19 04:36:25;;;;;;;31.40;24.67;;;;;;;15.54;100.00;101221.13;5014839;28;20056;-61
2022/08/19 04:38:54;;;;;;;32.05;26.50;;;;;;;15.53;100.00;101233.47;5014466;28;20025;-61
2022/08/19 04:44:03;;;;;;;34.25;26.77;;;;;;;15.55;100.00;101236.72;5015082;28;20119;-61
2022/08/19 04:46:30;;;;;;;33.72;27.15;;;;;;;15.56;100.00;101240.34;5014430;28;20025;-61
2022/08/19 04:48:56;;;;;;;34.08;28.05;;;;;;;15.57;100.00;101233.63;5014597;28;20104;-61
2022/08/19 04:51:22;;;;;;;32.28;26.30;;;;;;;15.58;100.00;101235.25;5014282;28;20046;-61
2022/08/19 04:53:47;;;;;;;34.70;27.67;;;;;;;15.59;100.00;101232.13;5014573;28;20060;-61
2022/08/19 04:56:15;;;;;;;32.83;26.65;;;;;;;15.54;100.00;101237.06;5014596;28;20045;-61
2022/08/19 04:58:42;;;;;;;33.25;26.85;;;;;;;15.55;100.00;101233.13;5014715;28;20150;-61
2022/08/19 05:01:11;;;;;;;31.70;25.45;;;;;;;15.59;100.00;101250.81;5014348;28;20105;-61
2022/08/19 05:03:38;;;;;;;31.08;24.83;;;;;;;15.59;100.00;101250.81;5014162;28;20390;-61
2022/08/19 05:06:09;;;;;;;31.23;24.95;;;;;;;15.59;100.00;101261.97;5014540;28;20396;-61
2022/08/19 05:08:37;;;;;;;29.88;24.95;;;;;;;15.52;100.00;101247.72;5014160;28;20033;-61
2022/08/19 05:11:09;;;;;;;29.60;24.63;;;;;;;15.49;100.00;101251.97;5014146;28;20030;-61
2022/08/19 05:13:34;;;;;;;31.55;24.83;;;;;;;15.57;100.00;101265.09;5014430;28;20026;-61
2022/08/19 05:15:59;;;;;;;31.60;25.35;;;;;;;15.56;100.00;101273.78;5014017;28;20050;-61
2022/08/19 05:23:57;;;;;;;33.17;26.65;;;;;;;15.65;100.00;101276.56;5012941;28;20053;-61
2022/08/19 05:26:22;;;;;;;37.13;29.73;;;;;;;15.66;100.00;101279.03;5014088;28;20021;-61
2022/08/19 05:28:48;;;;;;;38.85;30.77;;;;;;;15.71;100.00;101278.03;5013973;28;20030;-61
2022/08/19 05:31:13;;;;;;;43.05;34.20;;;;;;;15.73;100.00;101282.13;5014152;28;20041;-62
2022/08/19 05:33:39;;;;;;;42.15;34.63;;;;;;;15.77;100.00;101287.06;5013873;28;20022;-61
2022/08/19 05:36:07;;;;;;;46.33;37.05;;;;;;;15.81;100.00;101297.22;5013591;28;20041;-61
2022/08/19 05:38:32;;;;;;;49.08;39.88;;;;;;;15.88;100.00;101291.97;5013708;28;20025;-61
2022/08/19 05:40:58;;;;;;;50.42;40.67;;;;;;;15.97;100.00;101302.31;4995637;28;20025;-61
2022/08/19 05:43:23;;;;;;;49.10;39.20;;;;;;;16.11;100.00;101302.09;5013417;28;20417;-61
2022/08/19 05:45:50;;;;;;;51.28;40.65;;;;;;;16.21;100.00;101294.16;5013772;28;20463;-61
2022/08/19 05:48:17;;;;;;;51.72;40.78;;;;;;;16.30;100.00;101307.28;5013422;28;20034;-61
2022/08/19 05:50:45;;;;;;;56.20;44.15;;;;;;;16.36;100.00;101297.59;5013387;28;20046;-60
2022/08/19 05:53:10;;;;;;;57.70;43.65;;;;;;;16.43;100.00;101297.06;5013840;28;20032;-61
2022/08/19 05:55:38;;;;;;;54.30;42.53;;;;;;;16.48;100.00;101299.66;5013438;28;20021;-61
2022/08/19 05:58:03;;;;;;;58.90;43.75;;;;;;;16.55;100.00;101294.34;5013765;28;20038;-61
2022/08/19 06:00:31;;;;;;;56.50;43.25;;;;;;;16.62;100.00;101294.69;4995814;28;20104;-61
2022/08/19 06:02:59;;;;;;;56.20;42.67;;;;;;;16.68;100.00;101296.13;5013310;28;20038;-61
2022/08/19 06:05:24;;;;;;;57.35;43.35;;;;;;;16.73;100.00;101288.69;5013743;28;20528;-59
2022/08/19 06:07:50;;;;;;;57.38;42.53;;;;;;;16.76;100.00;101283.25;5013593;28;20066;-60
2022/08/19 06:10:15;;;;;;;55.33;42.88;;;;;;;16.78;100.00;101277.31;5013542;28;20029;-60
2022/08/19 06:12:40;;;;;;;58.22;43.05;;;;;;;16.81;100.00;101277.47;5013221;28;20022;-60
2022/08/19 06:15:11;;;;;;;56.88;43.13;;;;;;;16.87;100.00;101269.69;5013203;28;20410;-60
2022/08/19 06:17:36;;;;;;;58.38;43.92;;;;;;;16.93;100.00;101281.50;5013126;28;20465;-60
2022/08/19 06:20:13;;;;;;;60.38;45.67;;;;;;;16.94;100.00;101278.38;5013331;28;20036;-60
2022/08/19 06:22:40;;;;;;;55.78;43.38;;;;;;;17.03;100.00;101285.91;5013258;28;20362;-60
2022/08/19 06:25:06;;;;;;;56.72;43.45;;;;;;;17.03;100.00;101281.13;5013191;28;20041;-60
2022/08/19 06:27:32;;;;;;;55.88;43.72;;;;;;;17.05;100.00;101283.59;5012648;28;20030;-61
2022/08/19 06:29:58;;;;;;;57.10;43.45;;;;;;;17.08;100.00;101286.50;5013124;28;20112;-60
2022/08/19 06:32:23;;;;;;;55.15;43.47;;;;;;;17.14;100.00;101289.94;5012803;28;20104;-61
2022/08/19 06:34:48;;;;;;;58.03;42.78;;;;;;;17.15;100.00;101288.78;5012623;28;20026;-61
2022/08/19 06:37:14;;;;;;;55.15;42.25;;;;;;;17.19;100.00;101280.53;5012863;28;20030;-61
2022/08/19 06:39:42;;;;;;;59.65;41.42;;;;;;;17.28;99.63;101276.50;5013229;28;20113;-61
2022/08/19 06:42:12;;;;;;;54.15;41.03;;;;;;;17.34;99.79;101284.69;5012772;28;20029;-60
2022/08/19 06:44:40;;;;;;;54.10;40.50;;;;;;;17.38;99.64;101268.88;5012767;28;20029;-60
2022/08/19 06:47:08;;;;;;;54.15;40.78;;;;;;;17.49;98.81;101264.47;5012543;28;20030;-61
2022/08/19 06:49:35;;;;;;;55.67;40.95;;;;;;;17.66;98.28;101282.25;5012989;28;20061;-61
2022/08/19 06:52:01;;;;;;;56.60;39.70;;;;;;;17.79;97.57;101283.91;5012754;28;20083;-61
2022/08/19 06:54:29;;;;;;;50.88;38.25;;;;;;;17.95;96.90;101291.69;5012724;28;20041;-61
2022/08/19 06:56:54;;;;;;;50.08;36.70;;;;;;;18.19;95.57;101291.75;5012425;28;20299;-60
2022/08/19 06:59:22;;;;;;;51.28;38.20;;;;;;;18.31;93.95;101292.94;5012527;28;20109;-60
2022/08/19 07:01:53;;;;;;;48.70;37.20;;;;;;;18.36;93.57;101281.50;5012549;28;20030;-61
2022/08/19 07:04:21;;;;;;;49.58;38.80;;;;;;;18.45;92.98;101287.00;5012385;28;20025;-61
2022/08/19 07:06:48;;;;;;;50.30;37.03;;;;;;;18.46;92.51;101281.03;5011365;28;20048;-61
2022/08/19 07:09:16;;;;;;;50.60;37.00;;;;;;;18.57;92.35;101277.78;5010980;28;20394;-61
2022/08/19 07:11:46;;;;;;;51.10;36.53;;;;;;;18.62;92.15;101283.97;5010831;28;20038;-61
2022/08/19 07:14:12;;;;;;;47.50;35.83;;;;;;;18.70;91.46;101273.81;5011012;28;20030;-61
2022/08/19 07:16:38;;;;;;;47.35;36.53;;;;;;;18.74;91.24;101282.31;5010957;28;20030;-60
2022/08/19 07:19:04;;;;;;;50.05;37.08;;;;;;;18.75;91.65;101293.16;5010860;28;20419;-61
2022/08/19 07:21:29;;;;;;;48.20;36.42;;;;;;;18.79;91.29;101304.50;5010834;28;20048;-61
2022/08/19 07:23:56;;;;;;;50.33;37.03;;;;;;;18.86;90.75;101301.91;5010872;28;20034;-60
2022/08/19 07:26:25;;;;;;;49.40;37.67;;;;;;;18.89;90.71;101294.81;5010696;28;20383;-60
2022/08/19 07:28:51;;;;;;;45.08;34.88;;;;;;;19.12;89.99;101301.56;5027132;28;20037;-60
2022/08/19 07:31:19;;;;;;;49.63;37.97;;;;;;;19.10;89.60;101306.69;5030535;28;20030;-60
2022/08/19 07:33:47;;;;;;;49.67;38.17;;;;;;;19.04;89.39;101284.84;5030551;28;20116;-59
2022/08/19 07:36:15;;;;;;;53.35;39.15;;;;;;;19.27;89.23;101305.59;5030436;28;20025;-60
2022/08/19 07:38:42;;;;;;;50.05;38.03;;;;;;;19.41;88.69;101307.22;5030318;28;20038;-61
2022/08/19 07:41:11;;;;;;;52.40;40.70;;;;;;;19.51;88.17;101303.06;5030570;28;20064;-61
2022/08/19 07:43:37;;;;;;;50.30;40.55;;;;;;;19.57;88.00;101305.28;5030036;28;20041;-61
2022/08/19 07:46:02;;;;;;;51.30;41.50;;;;;;;19.51;88.15;101317.09;5029965;28;20036;-61
2022/08/19 07:48:28;;;;;;;50.22;40.08;;;;;;;19.42;88.23;101314.44;5033873;28;20115;-61
2022/08/19 07:51:03;;;;;;;53.00;42.83;;;;;;;19.35;88.39;101315.06;5033766;28;20049;-61
2022/08/19 07:53:30;;;;;;;48.60;38.63;;;;;;;19.51;87.93;101323.53;5033740;28;20037;-61
2022/08/19 07:56:01;;;;;;;51.88;40.28;;;;;;;19.59;87.71;101325.38;5034366;28;20109;-60
2022/08/19 07:58:27;;;;;;;52.72;40.53;;;;;;;19.72;87.40;101328.13;5034208;28;20048;-60
2022/08/19 08:00:53;;;;;;;51.25;40.72;;;;;;;19.75;87.29;101328.22;5034209;28;20040;-60
2022/08/19 08:09:10;;;;;;;50.08;39.30;;;;;;;19.79;86.81;101323.53;5033813;28;20026;-60
2022/08/19 08:11:33;;;;;;;;;;;;;;;20.33;84.79;101335.44;5034420;28;20103;-61
2022/08/19 08:13:59;;;;;;;48.83;37.43;;;;;;;20.31;84.37;101331.34;5033878;28;20418;-59
2022/08/19 08:16:29;;;;;;;48.42;35.00;;;;;;;20.31;83.80;101346.19;5033959;28;20076;-62
2022/08/19 08:18:55;;;;;;;48.40;36.83;;;;;;;20.22;83.51;101332.34;5033648;28;20112;-61
2022/08/19 08:21:20;;;;;;;47.47;35.65;;;;;;;20.32;83.27;101344.22;5034129;28;20101;-61
2022/08/19 08:23:45;;;;;;;48.30;37.58;;;;;;;20.47;83.16;101345.41;5033908;28;20112;-59
2022/08/19 08:26:12;;;;;;;47.05;36.63;;;;;;;20.53;82.71;101344.78;5033613;28;20029;-62
2022/08/19 08:28:38;;;;;;;46.72;36.38;;;;;;;20.77;82.29;101353.44;5033068;28;20030;-62
2022/08/19 08:31:04;;;;;;;42.83;33.78;;;;;;;20.87;80.69;101359.28;5015879;28;20026;-60
2022/08/19 08:33:30;;;;;;;42.35;33.97;;;;;;;20.91;79.95;101361.38;5033182;28;20029;-61
2022/08/19 08:35:55;;;;;;;42.78;34.97;;;;;;;20.83;79.50;101364.00;5033469;28;20068;-61
2022/08/19 08:38:21;;;;;;;47.85;36.00;;;;;;;20.83;80.30;101363.22;5033413;28;20025;-61
2022/08/19 08:40:51;;;;;;;45.55;34.72;;;;;;;20.83;80.23;101344.31;5032045;28;20097;-62
2022/08/19 08:43:30;;;;;;;41.50;34.28;;;;;;;21.03;79.66;101361.25;5033257;28;20531;-60
2022/08/19 08:46:04;;;;;;;45.42;34.83;;;;;;;20.96;79.35;101370.38;5033174;28;20033;-60
2022/08/19 08:48:46;;;;;;;41.47;33.45;;;;;;;21.12;78.91;101373.13;5033215;28;20029;-63
2022/08/19 08:51:16;;;;;;;42.88;34.25;;;;;;;21.24;78.22;101366.59;5033144;28;20045;-60
2022/08/19 08:53:44;;;;;;;43.25;35.53;;;;;;;21.12;78.10;101359.06;5033127;28;20151;-61
2022/08/19 08:56:13;;;;;;;42.15;35.38;;;;;;;21.30;77.94;101370.72;5033118;28;20116;-61
2022/08/19 08:59:21;;;;;;;42.22;34.35;;;;;;;21.38;78.58;101376.50;5032651;28;20068;-61
2022/08/19 09:01:47;;;;;;;44.00;34.95;;;;;;;21.32;77.29;101370.34;5024922;28;20038;-61
2022/08/19 09:04:13;;;;;;;45.10;35.75;;;;;;;21.18;77.87;101370.84;5032893;28;20099;-61
2022/08/19 09:06:49;;;;;;;41.35;33.80;;;;;;;21.34;77.81;101379.25;5032972;28;20067;-61
2022/08/19 09:09:39;;;;;;;41.40;33.72;;;;;;;21.20;77.46;101371.31;5032968;28;20036;-61
2022/08/19 09:12:23;;;;;;;41.78;33.65;;;;;;;21.14;77.68;101367.16;5032779;28;20021;-61
2022/08/19 09:15:08;;;;;;;;;;;;;;;21.27;76.40;101370.66;5033236;28;20025;-60
2022/08/19 09:17:34;;;;;;;39.88;32.67;;;;;;;21.32;76.44;101370.34;5032255;28;19908;-61
2022/08/19 09:20:06;;;;;;;42.03;32.50;;;;;;;21.55;74.92;101369.66;5032723;28;20436;-61
2022/08/19 09:22:32;;;;;;;37.60;31.27;;;;;;;21.75;74.23;101373.31;5033186;28;20056;-61
2022/08/19 09:24:57;;;;;;;42.17;33.50;;;;;;;21.82;73.23;101367.84;5032535;28;20053;-61
2022/08/19 09:27:25;;;;;;;40.50;32.97;;;;;;;21.79;73.31;101380.66;5032338;28;20102;-61
2022/08/19 09:29:51;;;;;;;39.50;32.35;;;;;;;21.75;73.81;101374.16;5031369;28;20382;-61
2022/08/19 09:32:17;;;;;;;40.65;33.83;;;;;;;21.65;73.78;101371.91;5031457;28;20086;-61
2022/08/19 09:34:43;;;;;;;38.92;33.38;;;;;;;21.61;74.33;101379.47;5032823;28;20037;-60
2022/08/19 09:37:09;;;;;;;39.40;34.42;;;;;;;21.64;74.45;101382.34;5031622;28;20052;-60
2022/08/19 09:39:34;;;;;;;38.95;32.63;;;;;;;21.49;74.63;101378.38;5032184;28;20445;-60
2022/08/19 09:42:00;;;;;;;40.25;33.88;;;;;;;21.33;74.85;101380.44;5032353;28;20076;-61
2022/08/19 09:44:25;;;;;;;40.60;34.17;;;;;;;21.24;75.77;101382.63;5031398;28;20029;-61
2022/08/19 09:46:51;;;;;;;42.17;34.65;;;;;;;21.13;76.42;101386.00;5030420;28;20025;-61
2022/08/19 09:49:18;;;;;;;42.63;35.17;;;;;;;20.99;77.69;101380.88;5031469;28;20052;-61
2022/08/19 09:51:44;;;;;;;44.40;36.92;;;;;;;20.97;77.89;101383.22;5013892;28;20057;-60
2022/08/19 09:54:09;;;;;;;46.22;36.83;;;;;;;20.91;78.07;101390.31;5031748;28;20071;-60
2022/08/19 09:56:34;;;;;;;43.67;36.20;;;;;;;20.94;78.33;101386.78;5031739;28;20110;-60
2022/08/19 09:59:03;;;;;;;46.10;36.92;;;;;;;20.99;77.78;101392.13;5031746;28;20056;-60
2022/08/19 10:01:31;;;;;;;44.33;36.40;;;;;;;21.10;77.52;101391.56;5031972;28;20094;-60
2022/08/19 10:03:58;;;;;;;45.60;36.92;;;;;;;21.09;77.00;101381.47;5032452;28;20025;-61
2022/08/19 10:06:29;;;;;;;45.25;35.70;;;;;;;21.28;75.71;101392.78;5032284;28;20030;-60
2022/08/19 10:08:55;;;;;;;41.97;34.75;;;;;;;21.39;75.93;101395.03;5031731;28;20033;-60
2022/08/19 10:11:20;;;;;;;43.38;34.70;;;;;;;21.43;75.11;101396.75;5031552;28;20086;-61
2022/08/19 10:13:47;;;;;;;45.20;35.30;;;;;;;21.60;74.55;101398.38;5013927;28;20029;-62
2022/08/19 10:16:17;;;;;;;44.25;35.30;;;;;;;21.71;74.34;101398.59;5031868;28;20030;-61
2022/08/19 10:18:43;;;;;;;41.72;34.15;;;;;;;21.86;73.76;101398.91;5031429;28;20400;-61
2022/08/19 10:21:24;;;;;;;42.55;34.00;;;;;;;21.95;73.71;101393.84;5031617;28;20025;-61
2022/08/19 10:23:52;;;;;;;42.75;33.85;;;;;;;22.09;72.14;101396.16;5031458;28;20037;-61
2022/08/19 10:26:41;;;;;;;44.58;36.65;;;;;;;21.97;72.17;101378.22;5031286;28;20028;-61
2022/08/19 10:29:07;;;;;;;47.25;35.70;;;;;;;22.20;72.31;101391.50;5030477;28;20072;-61
2022/08/19 10:31:34;;;;;;;43.58;36.40;;;;;;;22.34;71.19;101390.16;5031156;28;20053;-61
2022/08/19 10:34:00;;;;;;;42.13;34.92;;;;;;;22.46;70.62;101390.03;5031402;28;20041;-61
2022/08/19 10:36:31;;;;;;;41.55;34.60;;;;;;;22.57;70.24;101388.22;5031409;28;20037;-61
2022/08/19 10:39:01;;;;;;;42.25;33.95;;;;;;;22.59;70.02;101383.00;5031344;28;20424;-62
2022/08/19 10:41:29;;;;;;;43.65;34.28;;;;;;;22.43;69.94;101391.56;5031357;28;20029;-62
2022/08/19 10:43:57;;;;;;;41.38;33.63;;;;;;;22.35;70.50;101389.78;5031191;28;20022;-61
2022/08/19 10:46:25;;;;;;;41.05;33.83;;;;;;;22.19;70.57;101384.28;5031171;28;20065;-61
2022/08/19 10:48:50;;;;;;;42.13;34.17;;;;;;;22.14;71.12;101381.75;5031083;28;20040;-59
2022/08/19 10:54:01;;;;;;;45.00;34.15;;;;;;;22.12;71.52;101389.75;5031565;28;20049;-61
2022/08/19 10:59:13;;;;;;;41.20;32.65;;;;;;;22.21;70.33;101381.88;5031169;28;20052;-61
2022/08/19 11:01:40;;;;;;;40.72;33.53;;;;;;;22.11;71.09;101379.66;5013389;28;20083;-61
2022/08/19 11:04:09;;;;;;;40.45;31.63;;;;;;;22.16;71.52;101376.56;5030590;28;20030;-61
2022/08/19 11:06:36;;;;;;;40.20;32.05;;;;;;;22.17;70.88;101377.34;5030535;28;20029;-61
2022/08/19 11:09:02;;;;;;;40.55;32.63;;;;;;;22.31;70.14;101380.47;5030339;28;20059;-61
2022/08/19 11:11:28;;;;;;;39.70;32.55;;;;;;;22.46;69.95;101377.91;5030404;28;20025;-61
2022/08/19 11:13:53;;;;;;;43.72;33.95;;;;;;;22.71;69.38;101373.53;5030023;28;20029;-61
2022/08/19 11:16:21;;;;;;;42.72;33.53;;;;;;;22.86;68.70;101362.47;5030318;28;20095;-62
2022/08/19 11:18:50;;;;;;;39.70;32.83;;;;;;;23.02;68.47;101363.13;5030621;28;20017;-62
2022/08/19 11:21:20;;;;;;;39.92;33.28;;;;;;;23.21;67.51;101369.88;5030876;28;20048;-62
2022/08/19 11:23:47;;;;;;;39.92;32.72;;;;;;;23.25;67.28;101372.75;5030196;28;20029;-62
2022/08/19 11:26:14;;;;;;;40.95;33.95;;;;;;;23.07;66.81;101378.91;5030352;28;20033;-61
2022/08/19 11:28:40;;;;;;;37.70;31.58;;;;;;;23.28;66.88;101383.28;5029781;28;20711;-62